Terminal Aerodrome Forecast
Issued by NWS

Home | Current Version | Previous Version | Text Only | Print | Product List | Glossary On
Versions: 1 2 3 4 5 6 7 8 9 10 11 12 13 14 15 16 17 18 19 20 21 22 23 24 25 26 27 28 29 30 31 32 33 34 35 36 37 38 39
000
FTUS43 KPAH 272339
TAFOWB
TAF
KOWB 272339Z 2800/2824 21005KT P6SM BKN300
     FM280200 20002KT P6SM BKN026
      TEMPO 2805/2807 -SHRA
     FM281000 20002KT P6SM OVC015
      TEMPO 2810/2813 4SM BR
     FM281600 18010KT P6SM SCT050=

USA.gov is the U.S. government's official web portal to all federal, state and local government web resources and services.